sensor_id;sensor_type;location;lat;lon;timestamp;P1;durP1;ratioP1;P2;durP2;ratioP2
68763;SDS011;55754;52.038;5.566;2023-04-01T00:02:05;7.65;;;3.83;;
68763;SDS011;55754;52.038;5.566;2023-04-01T00:04:31;12.10;;;5.70;;
68763;SDS011;55754;52.038;5.566;2023-04-01T00:06:57;10.38;;;4.70;;
68763;SDS011;55754;52.038;5.566;2023-04-01T00:09:23;10.07;;;4.43;;
68763;SDS011;55754;52.038;5.566;2023-04-01T00:11:48;8.37;;;4.60;;
68763;SDS011;55754;52.038;5.566;2023-04-01T00:14:14;8.50;;;4.67;;
68763;SDS011;55754;52.038;5.566;2023-04-01T00:16:40;9.40;;;4.60;;
68763;SDS011;55754;52.038;5.566;2023-04-01T00:19:05;10.03;;;5.17;;
68763;SDS011;55754;52.038;5.566;2023-04-01T00:21:31;10.68;;;4.90;;
68763;SDS011;55754;52.038;5.566;2023-04-01T00:23:57;10.97;;;4.97;;
68763;SDS011;55754;52.038;5.566;2023-04-01T00:26:23;9.00;;;5.00;;
68763;SDS011;55754;52.038;5.566;2023-04-01T00:28:49;13.35;;;5.60;;
68763;SDS011;55754;52.038;5.566;2023-04-01T00:31:16;10.90;;;5.53;;
68763;SDS011;55754;52.038;5.566;2023-04-01T00:33:42;11.57;;;5.47;;
68763;SDS011;55754;52.038;5.566;2023-04-01T00:36:11;11.38;;;5.55;;
68763;SDS011;55754;52.038;5.566;2023-04-01T00:38:39;12.68;;;5.85;;
68763;SDS011;55754;52.038;5.566;2023-04-01T00:41:07;12.68;;;5.38;;
68763;SDS011;55754;52.038;5.566;2023-04-01T00:43:43;11.20;;;5.25;;
68763;SDS011;55754;52.038;5.566;2023-04-01T00:46:10;12.30;;;5.50;;
68763;SDS011;55754;52.038;5.566;2023-04-01T00:48:36;13.15;;;5.80;;
68763;SDS011;55754;52.038;5.566;2023-04-01T00:51:06;15.25;;;5.93;;
68763;SDS011;55754;52.038;5.566;2023-04-01T00:53:38;12.17;;;5.70;;
68763;SDS011;55754;52.038;5.566;2023-04-01T00:56:12;15.70;;;5.72;;
68763;SDS011;55754;52.038;5.566;2023-04-01T00:58:44;13.95;;;5.78;;
68763;SDS011;55754;52.038;5.566;2023-04-01T01:01:13;14.48;;;5.80;;
68763;SDS011;55754;52.038;5.566;2023-04-01T01:03:39;14.97;;;5.63;;
68763;SDS011;55754;52.038;5.566;2023-04-01T01:11:22;15.47;;;6.17;;
68763;SDS011;55754;52.038;5.566;2023-04-01T01:14:18;21.80;;;6.13;;
68763;SDS011;55754;52.038;5.566;2023-04-01T01:20:03;16.25;;;6.15;;
68763;SDS011;55754;52.038;5.566;2023-04-01T01:26:08;17.50;;;6.50;;
68763;SDS011;55754;52.038;5.566;2023-04-01T01:36:37;18.70;;;6.15;;
68763;SDS011;55754;52.038;5.566;2023-04-01T01:39:05;16.43;;;5.87;;
68763;SDS011;55754;52.038;5.566;2023-04-01T01:41:33;17.08;;;6.57;;
68763;SDS011;55754;52.038;5.566;2023-04-01T01:44:02;19.13;;;6.65;;
68763;SDS011;55754;52.038;5.566;2023-04-01T01:46:31;15.95;;;6.05;;
68763;SDS011;55754;52.038;5.566;2023-04-01T01:48:56;18.20;;;6.80;;
68763;SDS011;55754;52.038;5.566;2023-04-01T01:51:25;17.80;;;7.18;;
68763;SDS011;55754;52.038;5.566;2023-04-01T01:53:52;17.83;;;7.18;;
68763;SDS011;55754;52.038;5.566;2023-04-01T01:56:18;20.93;;;6.90;;
68763;SDS011;55754;52.038;5.566;2023-04-01T01:58:47;17.33;;;7.32;;
68763;SDS011;55754;52.038;5.566;2023-04-01T02:01:17;20.30;;;7.43;;
68763;SDS011;55754;52.038;5.566;2023-04-01T02:03:55;19.92;;;6.93;;
68763;SDS011;55754;52.038;5.566;2023-04-01T02:06:23;21.30;;;7.05;;
68763;SDS011;55754;52.038;5.566;2023-04-01T02:14:17;19.45;;;6.60;;
68763;SDS011;55754;52.038;5.566;2023-04-01T02:17:07;16.90;;;6.00;;
68763;SDS011;55754;52.038;5.566;2023-04-01T02:19:41;16.48;;;6.20;;
68763;SDS011;55754;52.038;5.566;2023-04-01T02:22:19;14.03;;;5.50;;
68763;SDS011;55754;52.038;5.566;2023-04-01T02:24:49;14.60;;;5.35;;
68763;SDS011;55754;52.038;5.566;2023-04-01T02:27:20;14.93;;;5.80;;
68763;SDS011;55754;52.038;5.566;2023-04-01T02:29:46;14.32;;;5.05;;
68763;SDS011;55754;52.038;5.566;2023-04-01T02:32:12;15.83;;;5.67;;
68763;SDS011;55754;52.038;5.566;2023-04-01T02:34:39;16.83;;;5.10;;
68763;SDS011;55754;52.038;5.566;2023-04-01T02:37:05;12.48;;;4.47;;
68763;SDS011;55754;52.038;5.566;2023-04-01T02:39:31;14.63;;;4.80;;
68763;SDS011;55754;52.038;5.566;2023-04-01T02:41:56;12.77;;;4.60;;
68763;SDS011;55754;52.038;5.566;2023-04-01T02:44:22;12.30;;;4.33;;
68763;SDS011;55754;52.038;5.566;2023-04-01T02:46:50;13.00;;;3.90;;
68763;SDS011;55754;52.038;5.566;2023-04-01T02:49:16;12.17;;;4.53;;
68763;SDS011;55754;52.038;5.566;2023-04-01T02:51:41;11.32;;;4.32;;
68763;SDS011;55754;52.038;5.566;2023-04-01T02:54:07;11.10;;;4.10;;
68763;SDS011;55754;52.038;5.566;2023-04-01T02:56:32;11.23;;;3.93;;
68763;SDS011;55754;52.038;5.566;2023-04-01T02:59:01;10.95;;;4.40;;
68763;SDS011;55754;52.038;5.566;2023-04-01T03:01:26;11.35;;;4.32;;
68763;SDS011;55754;52.038;5.566;2023-04-01T03:03:52;11.57;;;4.30;;
68763;SDS011;55754;52.038;5.566;2023-04-01T03:06:17;9.87;;;4.20;;
68763;SDS011;55754;52.038;5.566;2023-04-01T03:08:43;10.88;;;4.47;;
68763;SDS011;55754;52.038;5.566;2023-04-01T03:11:09;8.20;;;4.13;;
68763;SDS011;55754;52.038;5.566;2023-04-01T03:13:35;9.20;;;4.25;;
68763;SDS011;55754;52.038;5.566;2023-04-01T03:16:01;12.02;;;4.70;;
68763;SDS011;55754;52.038;5.566;2023-04-01T03:18:26;10.47;;;4.30;;
68763;SDS011;55754;52.038;5.566;2023-04-01T03:20:52;10.00;;;4.60;;
68763;SDS011;55754;52.038;5.566;2023-04-01T03:23:17;9.77;;;4.17;;
68763;SDS011;55754;52.038;5.566;2023-04-01T03:25:45;10.32;;;4.57;;
68763;SDS011;55754;52.038;5.566;2023-04-01T03:28:11;10.03;;;4.00;;
68763;SDS011;55754;52.038;5.566;2023-04-01T03:30:38;9.40;;;4.43;;
68763;SDS011;55754;52.038;5.566;2023-04-01T03:33:04;9.60;;;4.97;;
68763;SDS011;55754;52.038;5.566;2023-04-01T03:35:30;8.20;;;4.00;;
68763;SDS011;55754;52.038;5.566;2023-04-01T03:37:55;9.10;;;4.37;;
68763;SDS011;55754;52.038;5.566;2023-04-01T03:40:21;9.17;;;4.50;;
68763;SDS011;55754;52.038;5.566;2023-04-01T03:42:47;12.05;;;4.63;;
68763;SDS011;55754;52.038;5.566;2023-04-01T03:45:13;10.00;;;4.40;;
68763;SDS011;55754;52.038;5.566;2023-04-01T03:47:39;8.85;;;4.20;;
68763;SDS011;55754;52.038;5.566;2023-04-01T03:50:05;8.30;;;4.10;;
68763;SDS011;55754;52.038;5.566;2023-04-01T03:52:32;8.75;;;4.22;;
68763;SDS011;55754;52.038;5.566;2023-04-01T03:54:58;8.27;;;4.28;;
68763;SDS011;55754;52.038;5.566;2023-04-01T03:57:23;9.17;;;4.37;;
68763;SDS011;55754;52.038;5.566;2023-04-01T03:59:49;8.70;;;4.40;;
68763;SDS011;55754;52.038;5.566;2023-04-01T04:02:15;8.07;;;4.20;;
68763;SDS011;55754;52.038;5.566;2023-04-01T04:04:40;7.57;;;4.32;;
68763;SDS011;55754;52.038;5.566;2023-04-01T04:07:06;8.77;;;3.80;;
68763;SDS011;55754;52.038;5.566;2023-04-01T04:09:32;8.57;;;4.00;;
68763;SDS011;55754;52.038;5.566;2023-04-01T04:12:01;7.57;;;4.00;;
68763;SDS011;55754;52.038;5.566;2023-04-01T04:14:26;7.97;;;4.05;;
68763;SDS011;55754;52.038;5.566;2023-04-01T04:16:55;7.33;;;3.60;;
68763;SDS011;55754;52.038;5.566;2023-04-01T04:19:24;7.85;;;3.90;;
68763;SDS011;55754;52.038;5.566;2023-04-01T04:21:49;7.78;;;3.80;;
68763;SDS011;55754;52.038;5.566;2023-04-01T04:24:15;8.00;;;3.75;;
68763;SDS011;55754;52.038;5.566;2023-04-01T04:26:41;8.17;;;3.87;;
68763;SDS011;55754;52.038;5.566;2023-04-01T04:29:06;8.20;;;4.10;;
68763;SDS011;55754;52.038;5.566;2023-04-01T04:31:32;7.13;;;3.75;;
68763;SDS011;55754;52.038;5.566;2023-04-01T04:33:58;8.73;;;4.23;;
68763;SDS011;55754;52.038;5.566;2023-04-01T04:36:25;7.82;;;3.72;;
68763;SDS011;55754;52.038;5.566;2023-04-01T04:38:54;7.78;;;4.13;;
68763;SDS011;55754;52.038;5.566;2023-04-01T04:41:20;7.17;;;3.50;;
68763;SDS011;55754;52.038;5.566;2023-04-01T04:43:53;7.45;;;3.90;;
68763;SDS011;55754;52.038;5.566;2023-04-01T04:46:20;8.32;;;4.05;;
68763;SDS011;55754;52.038;5.566;2023-04-01T04:48:47;7.57;;;3.33;;
68763;SDS011;55754;52.038;5.566;2023-04-01T04:51:15;7.57;;;3.40;;
68763;SDS011;55754;52.038;5.566;2023-04-01T04:53:42;6.50;;;3.70;;
68763;SDS011;55754;52.038;5.566;2023-04-01T04:56:08;7.07;;;3.65;;
68763;SDS011;55754;52.038;5.566;2023-04-01T04:58:34;7.33;;;3.53;;
68763;SDS011;55754;52.038;5.566;2023-04-01T05:01:07;7.28;;;3.65;;
68763;SDS011;55754;52.038;5.566;2023-04-01T05:03:35;7.03;;;3.50;;
68763;SDS011;55754;52.038;5.566;2023-04-01T05:06:01;6.95;;;3.60;;
68763;SDS011;55754;52.038;5.566;2023-04-01T05:08:27;10.13;;;3.50;;
68763;SDS011;55754;52.038;5.566;2023-04-01T05:10:52;7.43;;;3.77;;
68763;SDS011;55754;52.038;5.566;2023-04-01T05:13:18;7.22;;;3.70;;
68763;SDS011;55754;52.038;5.566;2023-04-01T05:15:47;8.13;;;3.83;;
68763;SDS011;55754;52.038;5.566;2023-04-01T05:18:12;6.83;;;3.77;;
68763;SDS011;55754;52.038;5.566;2023-04-01T05:20:38;8.05;;;3.58;;
68763;SDS011;55754;52.038;5.566;2023-04-01T05:23:03;7.23;;;3.70;;
68763;SDS011;55754;52.038;5.566;2023-04-01T05:25:29;8.83;;;3.90;;
68763;SDS011;55754;52.038;5.566;2023-04-01T05:27:54;7.80;;;3.63;;
68763;SDS011;55754;52.038;5.566;2023-04-01T05:30:20;8.97;;;3.47;;
68763;SDS011;55754;52.038;5.566;2023-04-01T05:32:46;7.20;;;3.67;;
68763;SDS011;55754;52.038;5.566;2023-04-01T05:35:11;7.53;;;3.57;;
68763;SDS011;55754;52.038;5.566;2023-04-01T05:37:37;6.80;;;3.37;;
68763;SDS011;55754;52.038;5.566;2023-04-01T05:40:03;8.65;;;3.70;;
68763;SDS011;55754;52.038;5.566;2023-04-01T05:42:29;8.95;;;2.80;;
68763;SDS011;55754;52.038;5.566;2023-04-01T05:44:55;6.80;;;3.13;;
68763;SDS011;55754;52.038;5.566;2023-04-01T05:47:20;6.60;;;2.80;;
68763;SDS011;55754;52.038;5.566;2023-04-01T05:49:46;5.63;;;2.75;;
68763;SDS011;55754;52.038;5.566;2023-04-01T05:52:12;5.40;;;2.30;;
68763;SDS011;55754;52.038;5.566;2023-04-01T05:54:38;7.97;;;2.87;;
68763;SDS011;55754;52.038;5.566;2023-04-01T05:57:03;6.00;;;2.90;;
68763;SDS011;55754;52.038;5.566;2023-04-01T05:59:29;6.10;;;2.92;;
68763;SDS011;55754;52.038;5.566;2023-04-01T06:01:56;5.60;;;2.53;;
68763;SDS011;55754;52.038;5.566;2023-04-01T06:04:22;5.82;;;2.75;;
68763;SDS011;55754;52.038;5.566;2023-04-01T06:06:48;7.55;;;3.00;;
68763;SDS011;55754;52.038;5.566;2023-04-01T06:09:15;6.40;;;2.90;;
68763;SDS011;55754;52.038;5.566;2023-04-01T06:14:42;6.22;;;2.90;;
68763;SDS011;55754;52.038;5.566;2023-04-01T06:25:09;7.43;;;3.05;;
68763;SDS011;55754;52.038;5.566;2023-04-01T06:30:40;8.25;;;3.92;;
68763;SDS011;55754;52.038;5.566;2023-04-01T06:36:18;29.25;;;14.32;;
68763;SDS011;55754;52.038;5.566;2023-04-01T06:47:51;5.43;;;2.30;;
68763;SDS011;55754;52.038;5.566;2023-04-01T06:56:13;5.97;;;2.78;;
68763;SDS011;55754;52.038;5.566;2023-04-01T06:58:46;5.93;;;2.60;;
68763;SDS011;55754;52.038;5.566;2023-04-01T07:01:22;5.80;;;2.73;;
68763;SDS011;55754;52.038;5.566;2023-04-01T07:03:57;6.20;;;2.80;;
68763;SDS011;55754;52.038;5.566;2023-04-01T07:06:37;5.10;;;2.28;;
68763;SDS011;55754;52.038;5.566;2023-04-01T07:09:11;6.50;;;2.60;;
68763;SDS011;55754;52.038;5.566;2023-04-01T07:11:41;5.93;;;2.55;;
68763;SDS011;55754;52.038;5.566;2023-04-01T07:14:13;5.50;;;2.37;;
68763;SDS011;55754;52.038;5.566;2023-04-01T07:17:31;4.15;;;1.70;;
68763;SDS011;55754;52.038;5.566;2023-04-01T07:19:44;4.78;;;2.08;;
68763;SDS011;55754;52.038;5.566;2023-04-01T07:22:19;5.00;;;1.83;;
68763;SDS011;55754;52.038;5.566;2023-04-01T07:24:56;4.72;;;2.10;;
68763;SDS011;55754;52.038;5.566;2023-04-01T07:27:26;4.27;;;1.90;;
68763;SDS011;55754;52.038;5.566;2023-04-01T07:29:51;3.80;;;1.52;;
68763;SDS011;55754;52.038;5.566;2023-04-01T07:37:47;5.07;;;1.90;;
68763;SDS011;55754;52.038;5.566;2023-04-01T07:40:52;4.78;;;1.70;;
68763;SDS011;55754;52.038;5.566;2023-04-01T07:44:25;4.38;;;2.10;;
68763;SDS011;55754;52.038;5.566;2023-04-01T07:49:19;5.60;;;2.30;;
68763;SDS011;55754;52.038;5.566;2023-04-01T07:52:06;4.93;;;2.25;;
68763;SDS011;55754;52.038;5.566;2023-04-01T07:54:58;5.82;;;2.53;;
68763;SDS011;55754;52.038;5.566;2023-04-01T07:57:36;7.38;;;2.92;;
68763;SDS011;55754;52.038;5.566;2023-04-01T08:03:11;5.87;;;2.70;;
68763;SDS011;55754;52.038;5.566;2023-04-01T08:05:57;5.47;;;2.80;;
68763;SDS011;55754;52.038;5.566;2023-04-01T08:22:12;6.65;;;2.88;;
68763;SDS011;55754;52.038;5.566;2023-04-01T08:24:45;6.43;;;2.95;;
68763;SDS011;55754;52.038;5.566;2023-04-01T08:27:16;7.15;;;3.15;;
68763;SDS011;55754;52.038;5.566;2023-04-01T08:32:39;5.93;;;2.80;;
68763;SDS011;55754;52.038;5.566;2023-04-01T08:37:56;7.60;;;2.85;;
68763;SDS011;55754;52.038;5.566;2023-04-01T08:40:42;7.60;;;2.80;;
68763;SDS011;55754;52.038;5.566;2023-04-01T08:43:51;6.07;;;3.10;;
68763;SDS011;55754;52.038;5.566;2023-04-01T08:46:46;5.53;;;2.90;;
68763;SDS011;55754;52.038;5.566;2023-04-01T08:52:36;6.93;;;3.00;;
68763;SDS011;55754;52.038;5.566;2023-04-01T08:55:04;5.70;;;2.35;;
68763;SDS011;55754;52.038;5.566;2023-04-01T09:00:49;11.02;;;3.25;;
68763;SDS011;55754;52.038;5.566;2023-04-01T09:07:11;7.28;;;3.33;;
68763;SDS011;55754;52.038;5.566;2023-04-01T09:12:26;12.37;;;7.70;;
68763;SDS011;55754;52.038;5.566;2023-04-01T09:21:09;10.25;;;5.82;;
68763;SDS011;55754;52.038;5.566;2023-04-01T09:27:05;8.67;;;5.20;;
68763;SDS011;55754;52.038;5.566;2023-04-01T09:29:56;9.02;;;5.00;;
68763;SDS011;55754;52.038;5.566;2023-04-01T09:36:04;9.25;;;5.22;;
68763;SDS011;55754;52.038;5.566;2023-04-01T09:44:00;8.70;;;5.10;;
68763;SDS011;55754;52.038;5.566;2023-04-01T10:09:31;8.57;;;4.10;;
68763;SDS011;55754;52.038;5.566;2023-04-01T10:15:23;7.75;;;4.22;;
68763;SDS011;55754;52.038;5.566;2023-04-01T10:18:09;9.30;;;4.20;;
68763;SDS011;55754;52.038;5.566;2023-04-01T10:24:17;8.23;;;4.20;;
68763;SDS011;55754;52.038;5.566;2023-04-01T10:29:51;8.57;;;4.32;;
68763;SDS011;55754;52.038;5.566;2023-04-01T10:50:06;8.68;;;4.47;;
68763;SDS011;55754;52.038;5.566;2023-04-01T11:25:50;7.43;;;3.47;;
68763;SDS011;55754;52.038;5.566;2023-04-01T11:34:28;5.80;;;2.90;;
68763;SDS011;55754;52.038;5.566;2023-04-01T11:37:25;7.22;;;2.53;;
68763;SDS011;55754;52.038;5.566;2023-04-01T11:40:09;4.57;;;2.20;;
68763;SDS011;55754;52.038;5.566;2023-04-01T11:42:44;5.55;;;1.90;;
68763;SDS011;55754;52.038;5.566;2023-04-01T11:45:30;5.43;;;1.65;;
68763;SDS011;55754;52.038;5.566;2023-04-01T11:48:22;3.90;;;1.60;;
68763;SDS011;55754;52.038;5.566;2023-04-01T11:59:49;3.35;;;1.40;;
68763;SDS011;55754;52.038;5.566;2023-04-01T12:02:29;3.37;;;1.40;;
68763;SDS011;55754;52.038;5.566;2023-04-01T12:16:11;4.20;;;1.70;;
68763;SDS011;55754;52.038;5.566;2023-04-01T12:18:48;3.72;;;1.50;;
68763;SDS011;55754;52.038;5.566;2023-04-01T12:24:34;3.80;;;1.70;;
68763;SDS011;55754;52.038;5.566;2023-04-01T12:32:42;4.30;;;1.80;;
68763;SDS011;55754;52.038;5.566;2023-04-01T12:35:27;4.03;;;1.77;;
68763;SDS011;55754;52.038;5.566;2023-04-01T12:38:22;4.60;;;1.80;;
68763;SDS011;55754;52.038;5.566;2023-04-01T12:41:30;4.20;;;2.22;;
68763;SDS011;55754;52.038;5.566;2023-04-01T12:44:04;5.57;;;2.00;;
68763;SDS011;55754;52.038;5.566;2023-04-01T12:46:56;3.80;;;1.80;;
68763;SDS011;55754;52.038;5.566;2023-04-01T12:52:31;6.15;;;2.00;;
68763;SDS011;55754;52.038;5.566;2023-04-01T12:55:08;5.15;;;2.30;;
68763;SDS011;55754;52.038;5.566;2023-04-01T12:58:13;5.50;;;2.77;;
68763;SDS011;55754;52.038;5.566;2023-04-01T13:14:51;7.45;;;3.78;;
68763;SDS011;55754;52.038;5.566;2023-04-01T13:17:47;7.03;;;3.78;;
68763;SDS011;55754;52.038;5.566;2023-04-01T13:20:32;7.95;;;3.90;;
68763;SDS011;55754;52.038;5.566;2023-04-01T13:29:04;7.00;;;3.78;;
68763;SDS011;55754;52.038;5.566;2023-04-01T13:34:42;9.52;;;4.50;;
68763;SDS011;55754;52.038;5.566;2023-04-01T13:40:16;9.77;;;5.30;;
68763;SDS011;55754;52.038;5.566;2023-04-01T13:43:19;8.48;;;4.68;;
68763;SDS011;55754;52.038;5.566;2023-04-01T13:46:25;10.20;;;4.35;;
68763;SDS011;55754;52.038;5.566;2023-04-01T13:52:09;8.23;;;4.45;;
68763;SDS011;55754;52.038;5.566;2023-04-01T14:00:42;6.45;;;3.38;;
68763;SDS011;55754;52.038;5.566;2023-04-01T14:03:44;6.65;;;2.45;;
68763;SDS011;55754;52.038;5.566;2023-04-01T14:06:29;9.32;;;2.40;;
68763;SDS011;55754;52.038;5.566;2023-04-01T14:09:19;5.23;;;2.10;;
68763;SDS011;55754;52.038;5.566;2023-04-01T14:12:27;5.00;;;2.08;;
68763;SDS011;55754;52.038;5.566;2023-04-01T14:17:56;5.88;;;2.50;;
68763;SDS011;55754;52.038;5.566;2023-04-01T14:28:25;6.30;;;2.50;;
68763;SDS011;55754;52.038;5.566;2023-04-01T14:34:32;6.32;;;3.40;;
68763;SDS011;55754;52.038;5.566;2023-04-01T14:37:10;14.57;;;8.23;;
68763;SDS011;55754;52.038;5.566;2023-04-01T14:48:24;8.50;;;4.88;;
68763;SDS011;55754;52.038;5.566;2023-04-01T14:50:57;6.03;;;2.97;;
68763;SDS011;55754;52.038;5.566;2023-04-01T14:53:36;5.78;;;2.83;;
68763;SDS011;55754;52.038;5.566;2023-04-01T14:56:36;6.10;;;3.13;;
68763;SDS011;55754;52.038;5.566;2023-04-01T14:59:39;8.68;;;3.50;;
68763;SDS011;55754;52.038;5.566;2023-04-01T15:12:36;9.80;;;3.30;;
68763;SDS011;55754;52.038;5.566;2023-04-01T15:15:33;9.57;;;5.30;;
68763;SDS011;55754;52.038;5.566;2023-04-01T15:18:27;7.68;;;4.22;;
68763;SDS011;55754;52.038;5.566;2023-04-01T15:26:38;7.70;;;4.30;;
68763;SDS011;55754;52.038;5.566;2023-04-01T15:34:32;9.27;;;5.38;;
68763;SDS011;55754;52.038;5.566;2023-04-01T15:42:30;7.22;;;4.10;;
68763;SDS011;55754;52.038;5.566;2023-04-01T15:59:22;7.50;;;4.40;;
68763;SDS011;55754;52.038;5.566;2023-04-01T16:13:42;6.37;;;3.17;;
68763;SDS011;55754;52.038;5.566;2023-04-01T16:19:47;6.70;;;3.60;;
68763;SDS011;55754;52.038;5.566;2023-04-01T16:22:17;6.05;;;3.28;;
68763;SDS011;55754;52.038;5.566;2023-04-01T16:24:46;7.18;;;4.47;;
68763;SDS011;55754;52.038;5.566;2023-04-01T16:27:16;5.67;;;3.10;;
68763;SDS011;55754;52.038;5.566;2023-04-01T16:32:18;7.40;;;4.40;;
68763;SDS011;55754;52.038;5.566;2023-04-01T16:37:49;7.00;;;4.15;;
68763;SDS011;55754;52.038;5.566;2023-04-01T16:40:37;5.70;;;3.00;;
68763;SDS011;55754;52.038;5.566;2023-04-01T16:48:59;11.23;;;7.10;;
68763;SDS011;55754;52.038;5.566;2023-04-01T17:00:12;10.38;;;4.75;;
68763;SDS011;55754;52.038;5.566;2023-04-01T17:02:52;8.07;;;4.43;;
68763;SDS011;55754;52.038;5.566;2023-04-01T17:05:32;6.43;;;3.70;;
68763;SDS011;55754;52.038;5.566;2023-04-01T17:11:21;7.80;;;4.88;;
68763;SDS011;55754;52.038;5.566;2023-04-01T17:15:10;6.10;;;3.40;;
68763;SDS011;55754;52.038;5.566;2023-04-01T17:17:10;6.20;;;3.60;;
68763;SDS011;55754;52.038;5.566;2023-04-01T17:23:11;7.70;;;4.32;;
68763;SDS011;55754;52.038;5.566;2023-04-01T17:31:26;11.30;;;5.60;;
68763;SDS011;55754;52.038;5.566;2023-04-01T17:34:09;9.00;;;5.45;;
68763;SDS011;55754;52.038;5.566;2023-04-01T17:36:45;8.20;;;5.07;;
68763;SDS011;55754;52.038;5.566;2023-04-01T17:39:42;8.93;;;4.65;;
68763;SDS011;55754;52.038;5.566;2023-04-01T17:42:22;8.30;;;5.03;;
68763;SDS011;55754;52.038;5.566;2023-04-01T17:56:01;6.97;;;4.22;;
68763;SDS011;55754;52.038;5.566;2023-04-01T18:01:15;7.13;;;4.30;;
68763;SDS011;55754;52.038;5.566;2023-04-01T18:06:32;7.50;;;3.43;;
68763;SDS011;55754;52.038;5.566;2023-04-01T18:15:00;7.20;;;4.22;;
68763;SDS011;55754;52.038;5.566;2023-04-01T18:20:39;7.67;;;4.60;;
68763;SDS011;55754;52.038;5.566;2023-04-01T18:23:12;8.88;;;5.07;;
68763;SDS011;55754;52.038;5.566;2023-04-01T18:25:53;9.25;;;4.95;;
68763;SDS011;55754;52.038;5.566;2023-04-01T18:28:39;8.25;;;4.88;;
68763;SDS011;55754;52.038;5.566;2023-04-01T18:39:15;7.32;;;4.13;;
68763;SDS011;55754;52.038;5.566;2023-04-01T18:42:03;8.15;;;4.47;;
68763;SDS011;55754;52.038;5.566;2023-04-01T18:44:50;6.55;;;3.88;;
68763;SDS011;55754;52.038;5.566;2023-04-01T18:47:38;6.40;;;3.73;;
68763;SDS011;55754;52.038;5.566;2023-04-01T18:52:46;7.05;;;3.90;;
68763;SDS011;55754;52.038;5.566;2023-04-01T18:57:51;6.43;;;4.00;;
68763;SDS011;55754;52.038;5.566;2023-04-01T19:03:00;6.32;;;3.67;;
68763;SDS011;55754;52.038;5.566;2023-04-01T19:05:34;7.25;;;4.20;;
68763;SDS011;55754;52.038;5.566;2023-04-01T19:16:50;7.00;;;3.97;;
68763;SDS011;55754;52.038;5.566;2023-04-01T19:24:53;6.68;;;3.20;;
68763;SDS011;55754;52.038;5.566;2023-04-01T19:27:42;6.33;;;3.00;;
68763;SDS011;55754;52.038;5.566;2023-04-01T19:30:32;6.75;;;4.00;;
68763;SDS011;55754;52.038;5.566;2023-04-01T19:35:42;5.57;;;2.90;;
68763;SDS011;55754;52.038;5.566;2023-04-01T19:43:48;6.97;;;3.50;;
68763;SDS011;55754;52.038;5.566;2023-04-01T19:46:38;8.52;;;3.40;;
68763;SDS011;55754;52.038;5.566;2023-04-01T20:00:15;5.28;;;2.83;;
68763;SDS011;55754;52.038;5.566;2023-04-01T20:02:53;6.00;;;2.88;;
68763;SDS011;55754;52.038;5.566;2023-04-01T20:05:25;5.53;;;3.17;;
68763;SDS011;55754;52.038;5.566;2023-04-01T20:08:13;6.07;;;3.10;;
68763;SDS011;55754;52.038;5.566;2023-04-01T20:10:53;5.88;;;3.25;;
68763;SDS011;55754;52.038;5.566;2023-04-01T20:14:02;6.55;;;3.60;;
68763;SDS011;55754;52.038;5.566;2023-04-01T20:20:01;7.28;;;4.13;;
68763;SDS011;55754;52.038;5.566;2023-04-01T20:22:59;7.80;;;3.70;;
68763;SDS011;55754;52.038;5.566;2023-04-01T20:28:02;7.38;;;3.88;;
68763;SDS011;55754;52.038;5.566;2023-04-01T20:36:10;9.63;;;5.15;;
68763;SDS011;55754;52.038;5.566;2023-04-01T20:41:26;9.75;;;5.57;;
68763;SDS011;55754;52.038;5.566;2023-04-01T20:49:52;9.68;;;6.00;;
68763;SDS011;55754;52.038;5.566;2023-04-01T21:00:31;9.25;;;6.18;;
68763;SDS011;55754;52.038;5.566;2023-04-01T21:08:45;9.10;;;6.15;;
68763;SDS011;55754;52.038;5.566;2023-04-01T21:11:50;9.10;;;6.20;;
68763;SDS011;55754;52.038;5.566;2023-04-01T21:20:13;9.27;;;6.20;;
68763;SDS011;55754;52.038;5.566;2023-04-01T21:23:11;8.68;;;5.60;;
68763;SDS011;55754;52.038;5.566;2023-04-01T21:42:28;8.00;;;4.50;;
68763;SDS011;55754;52.038;5.566;2023-04-01T21:45:28;8.77;;;4.90;;
68763;SDS011;55754;52.038;5.566;2023-04-01T22:10:19;7.78;;;4.75;;
68763;SDS011;55754;52.038;5.566;2023-04-01T22:12:52;10.38;;;5.43;;
68763;SDS011;55754;52.038;5.566;2023-04-01T22:18:13;8.40;;;5.47;;
68763;SDS011;55754;52.038;5.566;2023-04-01T22:21:19;8.55;;;5.10;;
68763;SDS011;55754;52.038;5.566;2023-04-01T22:24:40;9.68;;;5.60;;
68763;SDS011;55754;52.038;5.566;2023-04-01T22:27:01;9.23;;;5.53;;
68763;SDS011;55754;52.038;5.566;2023-04-01T22:32:23;10.40;;;5.82;;
68763;SDS011;55754;52.038;5.566;2023-04-01T22:34:57;9.30;;;5.88;;
68763;SDS011;55754;52.038;5.566;2023-04-01T22:40:25;9.23;;;5.60;;
68763;SDS011;55754;52.038;5.566;2023-04-01T22:43:13;10.20;;;5.78;;
68763;SDS011;55754;52.038;5.566;2023-04-01T22:54:12;11.05;;;6.45;;
68763;SDS011;55754;52.038;5.566;2023-04-01T22:56:48;10.45;;;6.20;;
68763;SDS011;55754;52.038;5.566;2023-04-01T23:02:32;10.50;;;6.30;;
68763;SDS011;55754;52.038;5.566;2023-04-01T23:05:18;11.55;;;6.90;;
68763;SDS011;55754;52.038;5.566;2023-04-01T23:08:00;10.68;;;6.38;;
68763;SDS011;55754;52.038;5.566;2023-04-01T23:10:44;10.25;;;6.25;;
68763;SDS011;55754;52.038;5.566;2023-04-01T23:13:37;10.75;;;6.50;;
68763;SDS011;55754;52.038;5.566;2023-04-01T23:16:08;14.93;;;6.53;;
68763;SDS011;55754;52.038;5.566;2023-04-01T23:18:36;10.52;;;6.60;;
68763;SDS011;55754;52.038;5.566;2023-04-01T23:21:35;11.70;;;7.18;;
68763;SDS011;55754;52.038;5.566;2023-04-01T23:24:19;10.25;;;6.30;;
68763;SDS011;55754;52.038;5.566;2023-04-01T23:26:55;10.77;;;6.78;;
68763;SDS011;55754;52.038;5.566;2023-04-01T23:29:36;11.07;;;6.20;;
68763;SDS011;55754;52.038;5.566;2023-04-01T23:32:04;10.45;;;6.65;;
68763;SDS011;55754;52.038;5.566;2023-04-01T23:34:38;13.73;;;7.57;;
68763;SDS011;55754;52.038;5.566;2023-04-01T23:37:05;12.85;;;7.30;;
68763;SDS011;55754;52.038;5.566;2023-04-01T23:39:39;12.00;;;7.70;;
68763;SDS011;55754;52.038;5.566;2023-04-01T23:44:46;13.85;;;8.32;;
68763;SDS011;55754;52.038;5.566;2023-04-01T23:47:15;12.07;;;7.05;;
68763;SDS011;55754;52.038;5.566;2023-04-01T23:49:46;12.60;;;7.75;;
68763;SDS011;55754;52.038;5.566;2023-04-01T23:52:19;10.73;;;7.00;;
68763;SDS011;55754;52.038;5.566;2023-04-01T23:54:57;11.82;;;7.18;;
68763;SDS011;55754;52.038;5.566;2023-04-01T23:57:36;11.63;;;7.50;;
